Picton Castle — E5WP — position and weather

sailwx.info

Track history (hours):
 
Tides and Currents Weather Stations Pressure Air Temp Water Temp Dewpoint Dewpoint Depression Visibility Wind Speed Wind Dir Waves Ship Positions

Picton Castle (Cook Islands)

Ship's website: http://www.picton-castle.com/

Last reported at 2018-Apr-05 22:03 UTC. Time now 2018-May-26 21:45 UTC.
Position N 29°19' W 094°48'.
Warning: this ship's position is 50 days out of date.

Length 37 m; draft 4.4 m.

Type: Sailing vessel. MMSI: 518000019.

Date/timePositionNaut miles runAvg speedWind from/ knotsBaromVisibWave heightAir tempDewpointWater temp
2018-Apr-05 22:03N 29°19' W 094°48'0 0.0
2018-Apr-05 22:00N 29°19' W 094°48'0 0.6
2018-Apr-05 21:30N 29°19' W 094°47'3 5.0
2018-Apr-05 20:59N 29°20' W 094°45'3 7.1
2018-Apr-05 20:30N 29°20' W 094°41'2 4.8
2018-Apr-05 20:00N 29°18' W 094°43'2 1.2
2018-Apr-05 18:29N 29°17' W 094°45'1 1.8
2018-Apr-05 17:56N 29°17' W 094°44'2 4.5
2018-Apr-05 17:26N 29°15' W 094°45'1 1.9
2018-Apr-05 17:00N 29°16' W 094°44'2 2.0
2018-Apr-05 15:56N 29°17' W 094°42'3 5.9
2018-Apr-05 15:30N 29°20' W 094°41'2 4.0
2018-Apr-05 14:59N 29°21' W 094°43'2 3.1
2018-Apr-05 14:29N 29°21' W 094°45'0 0.4
2018-Apr-05 14:00N 29°21' W 094°45'0 0.0
2018-Apr-05 12:21N 29°21' W 094°45'0 0.0
2018-Apr-05 11:51N 29°21' W 094°45'0 0.1
2018-Apr-05 11:30N 29°21' W 094°45'0 0.0
2018-Apr-05 11:00N 29°21' W 094°45'0 0.0
2018-Apr-05 10:27N 29°21' W 094°45'0 0.0
2018-Apr-05 10:00N 29°21' W 094°45'0 0.0
2018-Apr-05 09:30N 29°21' W 094°45'0 0.0
2018-Apr-05 09:00N 29°21' W 094°45'0 0.0
2018-Apr-05 08:24N 29°21' W 094°45'0 0.0
2018-Apr-05 08:00N 29°21' W 094°45'0 0.0
2018-Apr-05 07:24N 29°21' W 094°45'0 0.0
2018-Apr-05 06:57N 29°21' W 094°45'0 0.0
2018-Apr-05 06:27N 29°21' W 094°45'0 0.0
2018-Apr-05 06:00N 29°21' W 094°45'0 0.0
2018-Apr-05 05:24N 29°21' W 094°45'0 0.1
2018-Apr-05 04:57N 29°21' W 094°45'0 0.0
2018-Apr-05 04:30N 29°21' W 094°45'0 0.0
2018-Apr-05 03:57N 29°21' W 094°45'0 0.0
2018-Apr-05 03:24N 29°21' W 094°45'0 0.1
2018-Apr-05 02:57N 29°21' W 094°45'0 0.1
2018-Apr-05 02:21N 29°21' W 094°45'0 0.0
2018-Apr-05 01:51N 29°21' W 094°45'0 0.0
2018-Apr-05 01:12N 29°21' W 094°45'0 0.0
2018-Apr-05 00:48N 29°21' W 094°45'0 0.0
2018-Apr-05 00:30N 29°21' W 094°45'0 0.0
2018-Apr-05 00:00N 29°21' W 094°45'0 0.0
2018-Apr-04 23:27N 29°21' W 094°45'0 0.0
2018-Apr-04 22:57N 29°21' W 094°45'0 0.0
2018-Apr-04 21:45N 29°21' W 094°45'0 0.0
2018-Apr-04 21:24N 29°21' W 094°45'0 0.0
2018-Apr-04 21:00N 29°21' W 094°45'0 0.0
2018-Apr-04 20:24N 29°21' W 094°45'0 0.0
2018-Apr-04 20:00N 29°21' W 094°45'0 0.0
2018-Apr-04 19:30N 29°21' W 094°45'0 0.0
2018-Apr-04 19:00N 29°21' W 094°45'0 0.0
2018-Apr-04 18:30N 29°21' W 094°45'0 0.0
2018-Apr-04 18:00N 29°21' W 094°45'0 0.0
2018-Apr-04 17:30N 29°21' W 094°45'0 0.0
2018-Apr-04 17:00N 29°21' W 094°45'0 0.0
2018-Apr-04 16:30N 29°21' W 094°45'0 0.0
2018-Apr-04 16:00N 29°21' W 094°45'0 0.0
2018-Apr-04 15:30N 29°21' W 094°45'0 0.0
2018-Apr-04 15:00N 29°21' W 094°45'0 0.0
2018-Apr-04 14:30N 29°21' W 094°45'0 0.0
2018-Apr-04 14:00N 29°21' W 094°45'0 0.0
2018-Apr-04 13:30N 29°21' W 094°45'0 0.0
2018-Apr-04 13:00N 29°21' W 094°45'0 0.0
2018-Apr-04 12:30N 29°21' W 094°45'0 0.0
2018-Apr-04 11:57N 29°21' W 094°45'0 0.0
2018-Apr-04 11:30N 29°21' W 094°45'0 0.0
2018-Apr-04 10:57N 29°21' W 094°45'0 0.0
2018-Apr-04 10:27N 29°21' W 094°45'0 0.0
2018-Apr-04 10:00N 29°21' W 094°45'0 0.0
2018-Apr-04 08:42N 29°21' W 094°45'0 0.0
2018-Apr-04 08:30N 29°21' W 094°45'0 0.1
2018-Apr-04 07:57N 29°21' W 094°45'0 0.0
2018-Apr-04 07:24N 29°21' W 094°45'0 0.0
2018-Apr-04 06:57N 29°21' W 094°45'0 0.0
2018-Apr-04 06:03N 29°21' W 094°45'0 0.1
2018-Apr-04 05:54N 29°21' W 094°45'0 0.0
2018-Apr-04 05:24N 29°21' W 094°45'0 0.0
2018-Apr-04 04:12N 29°21' W 094°45'0 0.0
2018-Apr-04 03:54N 29°21' W 094°45'0 0.0
2018-Apr-04 03:24N 29°21' W 094°45'0 0.0
2018-Apr-04 02:54N 29°21' W 094°45'0 0.0
2018-Apr-04 01:09N 29°21' W 094°45'0 0.0
2018-Apr-04 01:00N 29°21' W 094°45'0 0.0
2018-Apr-03 23:45N 29°21' W 094°45'0 0.0
2018-Apr-03 23:27N 29°21' W 094°45'0 0.0
2018-Apr-03 22:47N 29°21' W 094°45'1 4.2
2018-Apr-03 22:30N 29°21' W 094°44'3 5.6
2018-Apr-03 22:00N 29°20' W 094°41'3 6.3
2018-Apr-03 21:30N 29°17' W 094°39'3 6.1
2018-Apr-03 21:00N 29°15' W 094°36'3 6.3
2018-Apr-03 20:29N 29°12' W 094°34'3 5.6
2018-Apr-03 20:00N 29°11' W 094°32'2 3.3
2018-Apr-03 19:29N 29°09' W 094°30'2 3.4
2018-Apr-03 19:01N 29°08' W 094°29'2 4.2
2018-Apr-03 18:30N 29°07' W 094°27'3 5.4
2018-Apr-03 17:59N 29°07' W 094°24'3 6.0
2018-Apr-03 17:30N 29°06' W 094°20'6 6.3
2018-Apr-03 16:30N 29°04' W 094°14'10 6.2
2018-Apr-03 14:54N 28°59' W 094°05'2 5.9
2018-Apr-03 14:29N 28°57' W 094°02'3 5.3
2018-Apr-03 14:00N 28°56' W 093°60'3 5.0
2018-Apr-03 13:28N 28°54' W 093°57'20 5.2
2018-Apr-03 09:38N 28°43' W 093°39'  
Track history (hours):
 
Tides and Currents Weather Stations Pressure Air Temp Water Temp Dewpoint Dewpoint Depression Visibility Wind Speed Wind Dir Waves Ship Positions

Picton Castle (Cook Islands)

Ship's website: http://www.picton-castle.com/

Last reported at 2018-Apr-05 22:03 UTC. Time now 2018-May-26 21:45 UTC.
Position N 29°19' W 094°48'.
Warning: this ship's position is 50 days out of date.

Length 37 m; draft 4.4 m.

Type: Sailing vessel. MMSI: 518000019.

Date/timePositionNaut miles runAvg speedWind from/ knotsBaromVisibWave heightAir tempDewpointWater temp
2018-Apr-05 22:03N 29°19' W 094°48'0 0.0
2018-Apr-05 22:00N 29°19' W 094°48'0 0.6
2018-Apr-05 21:30N 29°19' W 094°47'3 5.0
2018-Apr-05 20:59N 29°20' W 094°45'3 7.1
2018-Apr-05 20:30N 29°20' W 094°41'2 4.8
2018-Apr-05 20:00N 29°18' W 094°43'2 1.2
2018-Apr-05 18:29N 29°17' W 094°45'1 1.8
2018-Apr-05 17:56N 29°17' W 094°44'2 4.5
2018-Apr-05 17:26N 29°15' W 094°45'1 1.9
2018-Apr-05 17:00N 29°16' W 094°44'2 2.0
2018-Apr-05 15:56N 29°17' W 094°42'3 5.9
2018-Apr-05 15:30N 29°20' W 094°41'2 4.0
2018-Apr-05 14:59N 29°21' W 094°43'2 3.1
2018-Apr-05 14:29N 29°21' W 094°45'0 0.4
2018-Apr-05 14:00N 29°21' W 094°45'0 0.0
2018-Apr-05 12:21N 29°21' W 094°45'0 0.0
2018-Apr-05 11:51N 29°21' W 094°45'0 0.1
2018-Apr-05 11:30N 29°21' W 094°45'0 0.0
2018-Apr-05 11:00N 29°21' W 094°45'0 0.0
2018-Apr-05 10:27N 29°21' W 094°45'0 0.0
2018-Apr-05 10:00N 29°21' W 094°45'0 0.0
2018-Apr-05 09:30N 29°21' W 094°45'0 0.0
2018-Apr-05 09:00N 29°21' W 094°45'0 0.0
2018-Apr-05 08:24N 29°21' W 094°45'0 0.0
2018-Apr-05 08:00N 29°21' W 094°45'0 0.0
2018-Apr-05 07:24N 29°21' W 094°45'0 0.0
2018-Apr-05 06:57N 29°21' W 094°45'0 0.0
2018-Apr-05 06:27N 29°21' W 094°45'0 0.0
2018-Apr-05 06:00N 29°21' W 094°45'0 0.0
2018-Apr-05 05:24N 29°21' W 094°45'0 0.1
2018-Apr-05 04:57N 29°21' W 094°45'0 0.0
2018-Apr-05 04:30N 29°21' W 094°45'0 0.0
2018-Apr-05 03:57N 29°21' W 094°45'0 0.0
2018-Apr-05 03:24N 29°21' W 094°45'0 0.1
2018-Apr-05 02:57N 29°21' W 094°45'0 0.1
2018-Apr-05 02:21N 29°21' W 094°45'0 0.0
2018-Apr-05 01:51N 29°21' W 094°45'0 0.0
2018-Apr-05 01:12N 29°21' W 094°45'0 0.0
2018-Apr-05 00:48N 29°21' W 094°45'0 0.0
2018-Apr-05 00:30N 29°21' W 094°45'0 0.0
2018-Apr-05 00:00N 29°21' W 094°45'0 0.0
2018-Apr-04 23:27N 29°21' W 094°45'0 0.0
2018-Apr-04 22:57N 29°21' W 094°45'0 0.0
2018-Apr-04 21:45N 29°21' W 094°45'0 0.0
2018-Apr-04 21:24N 29°21' W 094°45'0 0.0
2018-Apr-04 21:00N 29°21' W 094°45'0 0.0
2018-Apr-04 20:24N 29°21' W 094°45'0 0.0
2018-Apr-04 20:00N 29°21' W 094°45'0 0.0
2018-Apr-04 19:30N 29°21' W 094°45'0 0.0
2018-Apr-04 19:00N 29°21' W 094°45'0 0.0
2018-Apr-04 18:30N 29°21' W 094°45'0 0.0
2018-Apr-04 18:00N 29°21' W 094°45'0 0.0
2018-Apr-04 17:30N 29°21' W 094°45'0 0.0
2018-Apr-04 17:00N 29°21' W 094°45'0 0.0
2018-Apr-04 16:30N 29°21' W 094°45'0 0.0
2018-Apr-04 16:00N 29°21' W 094°45'0 0.0
2018-Apr-04 15:30N 29°21' W 094°45'0 0.0
2018-Apr-04 15:00N 29°21' W 094°45'0 0.0
2018-Apr-04 14:30N 29°21' W 094°45'0 0.0
2018-Apr-04 14:00N 29°21' W 094°45'0 0.0
2018-Apr-04 13:30N 29°21' W 094°45'0 0.0
2018-Apr-04 13:00N 29°21' W 094°45'0 0.0
2018-Apr-04 12:30N 29°21' W 094°45'0 0.0
2018-Apr-04 11:57N 29°21' W 094°45'0 0.0
2018-Apr-04 11:30N 29°21' W 094°45'0 0.0
2018-Apr-04 10:57N 29°21' W 094°45'0 0.0
2018-Apr-04 10:27N 29°21' W 094°45'0 0.0
2018-Apr-04 10:00N 29°21' W 094°45'0 0.0
2018-Apr-04 08:42N 29°21' W 094°45'0 0.0
2018-Apr-04 08:30N 29°21' W 094°45'0 0.1
2018-Apr-04 07:57N 29°21' W 094°45'0 0.0
2018-Apr-04 07:24N 29°21' W 094°45'0 0.0
2018-Apr-04 06:57N 29°21' W 094°45'0 0.0
2018-Apr-04 06:03N 29°21' W 094°45'0 0.1
2018-Apr-04 05:54N 29°21' W 094°45'0 0.0
2018-Apr-04 05:24N 29°21' W 094°45'0 0.0
2018-Apr-04 04:12N 29°21' W 094°45'0 0.0
2018-Apr-04 03:54N 29°21' W 094°45'0 0.0
2018-Apr-04 03:24N 29°21' W 094°45'0 0.0
2018-Apr-04 02:54N 29°21' W 094°45'0 0.0
2018-Apr-04 01:09N 29°21' W 094°45'0 0.0
2018-Apr-04 01:00N 29°21' W 094°45'0 0.0
2018-Apr-03 23:45N 29°21' W 094°45'0 0.0
2018-Apr-03 23:27N 29°21' W 094°45'0 0.0
2018-Apr-03 22:47N 29°21' W 094°45'1 4.2
2018-Apr-03 22:30N 29°21' W 094°44'3 5.6
2018-Apr-03 22:00N 29°20' W 094°41'3 6.3
2018-Apr-03 21:30N 29°17' W 094°39'3 6.1
2018-Apr-03 21:00N 29°15' W 094°36'3 6.3
2018-Apr-03 20:29N 29°12' W 094°34'3 5.6
2018-Apr-03 20:00N 29°11' W 094°32'2 3.3
2018-Apr-03 19:29N 29°09' W 094°30'2 3.4
2018-Apr-03 19:01N 29°08' W 094°29'2 4.2
2018-Apr-03 18:30N 29°07' W 094°27'3 5.4
2018-Apr-03 17:59N 29°07' W 094°24'3 6.0
2018-Apr-03 17:30N 29°06' W 094°20'6 6.3
2018-Apr-03 16:30N 29°04' W 094°14'10 6.2
2018-Apr-03 14:54N 28°59' W 094°05'2 5.9
2018-Apr-03 14:29N 28°57' W 094°02'3 5.3
2018-Apr-03 14:00N 28°56' W 093°60'3 5.0
2018-Apr-03 13:28N 28°54' W 093°57'20 5.2
2018-Apr-03 09:38N 28°43' W 093°39'  

Dump ship's entire track history